Hauptseite
METAR-TAF:

METAR-TAF

Flughäfen :

Internationaler König-Abd-al-Aziz-Flughafen

Dschidda, Saudi-Arabien

Breite: 21-42N, Länge: 039-11E, Höhe: 15 m

Beobachtung

Neuester Wetterbericht von vor 15 Minuten, um 03:00 UTC
Windstille
Temperatur 23°C
Luftfeuchtigkeit 50%
Luftdruck 1015 hPa
Sichtweite 10 km oder mehr
keine Wolken unter 1500 m und keine Kumulonimbus oder Gewitterwolken

METAR: OEJN 170300Z 00000KT CAVOK 23/12 Q1015 NOSIG

Zeit: 06:15 (03:15 UTC)

Prognose

Neuester Wetterbericht von vor 4 Stunden und 15 Minuten, um 23:00 UTC
Gültige Prognose vom 17 um 00 UTC bis 18 um 06 UTC
Wind 5 kt aus Nord/Nordost
Sichtweite 10 km oder mehr
Leicht bewölkt in der Höhe von 4000 ft
Übergehend zu
vom 17 um 06 UTC bis 17 um 08 UTC
Wind 13 kt aus Nordwest

TAF: OEJN 162300Z 1700/1806 03005KT 9999 FEW040 BECMG 1706/1708 31013KT

Wetterbeobachtungen und Prognosen von mehr als 4000 Flughäfen (METAR und TAF Bericht).

Die verfügbaren Stationen werden durch gelbe und rote Markierungen auf der Karte dargestellt.

Führen Sie die Maus auf sie, um den Namen der Station zu sehen.

Darauf klicken, um die Beobachtung von Wetterbeobachtungen und Prognosen zu sehen.

Um die Karte zu ändern : klicken Sie auf den grünen Tasten mit einem schwarzen Kreuz Zum Vergrößern, auf den grünen Button mit einem Gedankenstrich zu verkleinern, oder auf die grünen Pfeile für benachbarte Karten.


METAR-TAF: